Time;durP1;ratioP1;P1;durP2;ratioP2;P2;SDS_P1;SDS_P2;PMS_P1;PMS_P2;Temp;Humidity;BMP_temperature;BMP_pressure;BME280_temperature;BME280_humidity;BME280_pressure;Samples;Min_cycle;Max_cycle;Signal;HPM_P1;HPM_P2
2023/01/26 00:01:14;;;;;;;123.57;26.25;;;-0.10;99.90;;;;;;4990741;28;20069;-64
2023/01/26 00:03:39;;;;;;;127.18;26.83;;;-0.10;99.90;;;;;;5005188;28;20132;-64
2023/01/26 00:06:07;;;;;;;118.20;24.35;;;-0.10;99.90;;;;;;5019167;28;20179;-65
2023/01/26 00:08:43;;;;;;;131.73;28.00;;;0.00;99.90;;;;;;5008183;28;20042;-65
2023/01/26 00:11:10;;;;;;;126.45;26.75;;;-0.10;99.90;;;;;;5001356;28;20416;-64
2023/01/26 00:13:36;;;;;;;132.93;25.95;;;-0.10;99.90;;;;;;5004315;28;20048;-65
2023/01/26 00:16:03;;;;;;;109.97;23.15;;;-0.10;99.90;;;;;;5021288;28;20407;-64
2023/01/26 00:18:29;;;;;;;109.05;23.30;;;-0.10;99.90;;;;;;5011168;28;20098;-64
2023/01/26 00:21:00;;;;;;;118.22;24.30;;;-0.10;99.90;;;;;;5004345;28;20052;-64
2023/01/26 00:23:29;;;;;;;108.30;24.20;;;-0.10;99.90;;;;;;4996386;28;20168;-65
2023/01/26 00:25:55;;;;;;;108.70;24.85;;;-0.10;99.90;;;;;;5001948;28;20034;-64
2023/01/26 00:28:20;;;;;;;132.88;27.60;;;-0.10;99.90;;;;;;5013235;28;20045;-64
2023/01/26 00:30:46;;;;;;;129.88;26.73;;;-0.10;99.90;;;;;;5010446;28;20033;-64
2023/01/26 00:33:12;;;;;;;147.75;30.20;;;-0.10;99.90;;;;;;4992192;28;20037;-64
2023/01/26 00:35:37;;;;;;;115.22;25.17;;;-0.10;99.90;;;;;;5004382;28;20042;-64
2023/01/26 00:38:04;;;;;;;124.43;25.42;;;-0.10;99.90;;;;;;5012250;28;20038;-65
2023/01/26 00:40:30;;;;;;;121.95;25.27;;;-0.10;99.90;;;;;;5026256;28;20076;-64
2023/01/26 00:42:55;;;;;;;129.73;26.83;;;0.00;99.90;;;;;;5013295;28;20077;-64
2023/01/26 00:45:21;;;;;;;136.27;28.83;;;0.00;99.90;;;;;;5019735;28;20041;-64
2023/01/26 00:47:47;;;;;;;142.02;29.08;;;-0.10;99.90;;;;;;4990209;28;20112;-65
2023/01/26 00:50:13;;;;;;;118.93;26.40;;;-0.10;99.90;;;;;;5025356;28;20037;-64
2023/01/26 00:52:38;;;;;;;121.65;26.13;;;0.00;99.90;;;;;;5030757;28;20495;-64
2023/01/26 00:55:05;;;;;;;129.88;26.70;;;0.00;99.90;;;;;;5031522;28;20069;-64
2023/01/26 00:57:30;;;;;;;98.65;22.58;;;0.00;99.90;;;;;;5018684;28;20080;-64
2023/01/26 00:59:56;;;;;;;142.32;27.73;;;0.00;99.90;;;;;;4997189;28;20168;-65
2023/01/26 01:02:22;;;;;;;130.13;27.42;;;-0.10;99.90;;;;;;5000224;28;20046;-64
2023/01/26 01:04:47;;;;;;;143.55;29.02;;;0.00;99.90;;;;;;5014729;28;20069;-64
2023/01/26 01:07:13;;;;;;;103.25;23.45;;;0.00;99.90;;;;;;5012990;28;20054;-64
2023/01/26 01:09:38;;;;;;;127.60;27.17;;;0.00;99.90;;;;;;5012500;28;20036;-64
2023/01/26 01:12:04;;;;;;;146.68;28.95;;;0.00;99.90;;;;;;5015351;28;20034;-64
2023/01/26 01:14:30;;;;;;;116.90;24.52;;;0.10;99.90;;;;;;5009389;28;20083;-65
2023/01/26 01:16:55;;;;;;;145.43;28.00;;;0.00;99.90;;;;;;5010374;28;20060;-64
2023/01/26 01:19:21;;;;;;;143.80;28.60;;;0.10;99.90;;;;;;5001727;28;20111;-65
2023/01/26 01:21:47;;;;;;;149.80;28.45;;;0.10;99.90;;;;;;5010681;28;20106;-64
2023/01/26 01:24:12;;;;;;;143.23;26.95;;;0.10;99.90;;;;;;4999350;28;20038;-65
2023/01/26 01:26:38;;;;;;;129.70;27.23;;;0.10;99.90;;;;;;5003892;28;21305;-64
2023/01/26 01:29:05;;;;;;;114.82;24.95;;;0.10;99.90;;;;;;5011620;28;20026;-64
2023/01/26 01:31:30;;;;;;;105.38;22.00;;;0.00;99.90;;;;;;5023376;28;20056;-64
2023/01/26 01:33:56;;;;;;;104.97;22.73;;;0.00;99.90;;;;;;5019478;28;20535;-64
2023/01/26 01:36:22;;;;;;;102.13;23.08;;;0.10;99.90;;;;;;5029201;28;20436;-65
2023/01/26 01:38:48;;;;;;;112.10;23.95;;;0.00;99.90;;;;;;5016460;28;20037;-64
2023/01/26 01:41:16;;;;;;;101.70;24.02;;;0.10;99.90;;;;;;5018863;28;20041;-64
2023/01/26 01:43:42;;;;;;;104.40;23.17;;;0.00;99.90;;;;;;5006779;28;20041;-64
2023/01/26 01:46:20;;;;;;;113.60;23.48;;;0.10;99.90;;;;;;5022520;28;20048;-64
2023/01/26 01:48:55;;;;;;;104.68;23.02;;;0.10;99.90;;;;;;5012557;28;20112;-64
2023/01/26 01:51:37;;;;;;;69.80;19.27;;;0.10;99.90;;;;;;4997429;28;20120;-65
2023/01/26 01:54:08;;;;;;;94.03;21.73;;;0.10;99.90;;;;;;5014895;28;20063;-64
2023/01/26 01:56:36;;;;;;;103.82;22.17;;;0.10;99.90;;;;;;5025416;28;20025;-64
2023/01/26 01:59:04;;;;;;;105.65;23.95;;;0.20;99.90;;;;;;5034420;28;20542;-64
2023/01/26 02:01:30;;;;;;;104.07;22.77;;;0.20;99.90;;;;;;5078000;22;20517;-63
2023/01/26 02:04:00;;;;;;;94.78;21.75;;;0.20;99.90;;;;;;5072635;28;20040;-63
2023/01/26 02:06:35;;;;;;;112.32;24.80;;;0.20;99.90;;;;;;5072510;28;20048;-63
2023/01/26 02:09:02;;;;;;;98.57;21.55;;;0.10;99.90;;;;;;5073523;28;20086;-63
2023/01/26 02:11:33;;;;;;;84.50;21.05;;;0.20;99.90;;;;;;5061731;28;20041;-63
2023/01/26 02:14:03;;;;;;;81.00;20.88;;;0.10;99.90;;;;;;5052748;28;20039;-63
2023/01/26 02:16:28;;;;;;;105.50;23.60;;;0.10;99.90;;;;;;5063695;28;20206;-63
2023/01/26 02:18:54;;;;;;;84.80;20.00;;;0.20;99.90;;;;;;5065453;28;20596;-63
2023/01/26 02:21:21;;;;;;;105.00;22.15;;;0.20;99.90;;;;;;5033134;28;20045;-64
2023/01/26 02:24:16;;;;;;;102.97;22.77;;;0.20;99.90;;;;;;5071639;28;20406;-63
2023/01/26 02:26:42;;;;;;;81.85;20.42;;;0.20;99.90;;;;;;5065305;28;20127;-63
2023/01/26 02:29:09;;;;;;;78.28;19.75;;;0.20;99.90;;;;;;5058221;28;20115;-63
2023/01/26 02:31:36;;;;;;;84.50;18.88;;;0.20;99.90;;;;;;5053257;28;20127;-63
2023/01/26 02:34:02;;;;;;;76.55;19.35;;;0.30;99.90;;;;;;5054372;28;20028;-63
2023/01/26 02:36:30;;;;;;;77.40;19.38;;;0.30;99.90;;;;;;5039392;28;20102;-63
2023/01/26 02:39:14;;;;;;;80.63;19.38;;;0.30;99.90;;;;;;5038965;28;20041;-63
2023/01/26 02:44:24;;;;;;;63.17;17.70;;;0.30;99.90;;;;;;5049400;28;20143;-63
2023/01/26 02:46:50;;;;;;;75.22;18.25;;;0.30;99.90;;;;;;5053008;28;20067;-63
2023/01/26 02:52:00;;;;;;;58.13;16.77;;;0.40;99.90;;;;;;5054357;28;20506;-63
2023/01/26 02:57:09;;;;;;;57.78;15.73;;;0.40;99.90;;;;;;5049135;28;20126;-62
2023/01/26 02:59:35;;;;;;;65.88;17.00;;;0.40;99.90;;;;;;5061780;28;20036;-62
2023/01/26 03:02:01;;;;;;;55.65;15.00;;;0.40;99.90;;;;;;5043112;28;20507;-62
2023/01/26 03:04:26;;;;;;;56.30;14.38;;;0.40;99.90;;;;;;5043138;28;20037;-62
2023/01/26 03:06:52;;;;;;;49.42;13.90;;;0.40;99.90;;;;;;5049046;28;20043;-63
2023/01/26 03:09:17;;;;;;;55.33;14.20;;;0.40;99.90;;;;;;5051911;28;20041;-63
2023/01/26 03:11:43;;;;;;;49.15;13.80;;;0.40;99.90;;;;;;5047282;28;20120;-63
2023/01/26 03:14:10;;;;;;;47.30;14.05;;;0.50;99.90;;;;;;5042303;28;20051;-61
2023/01/26 03:16:35;;;;;;;51.30;13.70;;;0.40;99.90;;;;;;5049405;28;20122;-63
2023/01/26 03:29:44;;;;;;;42.83;12.50;;;0.50;99.90;;;;;;5043131;28;20074;-63
2023/01/26 03:32:10;;;;;;;40.88;11.30;;;0.50;99.90;;;;;;5061801;28;20041;-63
2023/01/26 03:34:36;;;;;;;44.30;12.82;;;0.60;99.90;;;;;;5063711;28;20120;-63
2023/01/26 03:37:02;;;;;;;41.05;12.00;;;0.60;99.90;;;;;;5044375;28;20044;-63
2023/01/26 03:56:22;;;;;;;35.78;11.25;;;0.60;99.90;;;;;;5059971;28;20071;-63
2023/01/26 03:58:52;;;;;;;35.33;10.95;;;0.60;99.90;;;;;;5054129;28;20040;-63
2023/01/26 04:01:26;;;;;;;36.63;11.00;;;0.60;99.90;;;;;;5051080;28;20036;-63
2023/01/26 04:09:24;;;;;;;31.60;10.98;;;0.70;99.90;;;;;;5063281;28;20095;-63
2023/01/26 04:11:49;;;;;;;31.92;10.80;;;0.70;99.90;;;;;;5062766;28;20495;-63
2023/01/26 04:22:33;;;;;;;35.70;10.52;;;0.70;99.90;;;;;;5053157;28;20415;-63
2023/01/26 04:24:59;;;;;;;30.85;9.68;;;0.80;99.90;;;;;;5059609;28;20036;-63
2023/01/26 04:27:24;;;;;;;33.78;10.65;;;0.70;99.90;;;;;;5064680;28;20036;-63
2023/01/26 04:29:50;;;;;;;36.78;10.27;;;0.80;99.90;;;;;;5052118;28;20033;-63
2023/01/26 04:32:15;;;;;;;34.63;10.75;;;0.80;99.90;;;;;;5046342;28;20041;-63
2023/01/26 04:34:41;;;;;;;33.97;10.40;;;0.70;99.90;;;;;;5036721;28;20213;-63
2023/01/26 04:37:08;;;;;;;34.22;9.77;;;0.80;99.90;;;;;;5061909;28;20491;-63
2023/01/26 04:39:34;;;;;;;39.92;10.80;;;0.80;99.90;;;;;;5058036;28;20043;-63
2023/01/26 04:41:59;;;;;;;34.38;10.18;;;0.80;99.90;;;;;;5040231;28;20033;-63
2023/01/26 04:44:25;;;;;;;29.80;9.70;;;0.80;99.90;;;;;;5038386;28;20041;-61
2023/01/26 04:46:50;;;;;;;29.92;9.32;;;0.80;99.90;;;;;;5026070;28;20098;-63
2023/01/26 04:49:16;;;;;;;27.30;9.30;;;0.80;99.90;;;;;;5057619;28;20033;-63
2023/01/26 04:51:42;;;;;;;31.55;9.55;;;0.80;99.90;;;;;;5061148;28;20474;-64
2023/01/26 04:54:07;;;;;;;33.55;10.30;;;0.80;99.90;;;;;;5062797;28;20033;-64
2023/01/26 04:56:34;;;;;;;31.25;10.32;;;0.80;99.90;;;;;;5061373;28;20470;-64
2023/01/26 04:59:04;;;;;;;27.35;9.25;;;0.80;99.90;;;;;;5071392;28;20036;-63
2023/01/26 05:01:30;;;;;;;29.65;9.63;;;0.80;99.90;;;;;;5056949;28;20044;-63
2023/01/26 05:04:01;;;;;;;31.45;9.43;;;0.80;99.90;;;;;;5067949;28;20390;-63
2023/01/26 05:06:27;;;;;;;30.30;10.07;;;0.80;99.90;;;;;;5074074;28;20098;-63
2023/01/26 05:08:52;;;;;;;27.27;9.05;;;0.90;99.90;;;;;;5057581;28;20029;-64
2023/01/26 05:11:18;;;;;;;30.25;9.25;;;0.90;99.90;;;;;;5064099;28;20040;-64
2023/01/26 05:13:45;;;;;;;29.40;8.93;;;0.90;99.90;;;;;;5066696;28;20048;-64
2023/01/26 05:16:12;;;;;;;26.38;9.20;;;0.90;99.90;;;;;;5067289;28;20049;-64
2023/01/26 05:18:41;;;;;;;26.83;8.52;;;0.90;99.90;;;;;;5066017;28;20040;-63
2023/01/26 05:21:07;;;;;;;27.13;9.27;;;0.90;99.90;;;;;;5066047;28;20040;-63
2023/01/26 05:23:33;;;;;;;22.70;8.20;;;0.90;99.90;;;;;;5066785;28;20114;-63
2023/01/26 05:25:58;;;;;;;27.92;8.70;;;0.90;99.90;;;;;;5056623;28;20037;-64
2023/01/26 05:28:24;;;;;;;27.77;8.75;;;0.90;99.90;;;;;;5064966;28;20045;-64
2023/01/26 05:30:49;;;;;;;25.52;8.63;;;0.90;99.90;;;;;;5064417;28;20039;-63
2023/01/26 05:33:15;;;;;;;27.10;8.48;;;0.90;99.90;;;;;;5074516;28;20402;-63
2023/01/26 05:35:41;;;;;;;22.27;8.27;;;0.90;99.90;;;;;;5072636;28;20100;-64
2023/01/26 05:38:07;;;;;;;26.10;8.50;;;0.90;99.90;;;;;;5071951;28;20036;-63
2023/01/26 05:40:33;;;;;;;30.58;8.57;;;0.90;99.90;;;;;;5063936;28;20040;-63
2023/01/26 05:42:59;;;;;;;24.35;8.48;;;0.90;99.90;;;;;;5063956;28;20045;-63
2023/01/26 05:45:24;;;;;;;30.20;8.48;;;1.00;99.90;;;;;;5065759;28;20588;-63
2023/01/26 05:47:50;;;;;;;23.73;8.32;;;0.90;99.90;;;;;;5074405;28;20037;-64
2023/01/26 05:50:16;;;;;;;22.80;7.93;;;0.90;99.90;;;;;;5072296;28;20055;-63
2023/01/26 05:52:45;;;;;;;27.10;8.95;;;0.90;99.90;;;;;;5068741;28;21054;-63
2023/01/26 05:55:11;;;;;;;26.40;8.05;;;1.00;99.90;;;;;;5059807;28;20491;-64
2023/01/26 05:57:36;;;;;;;24.27;8.13;;;1.00;99.90;;;;;;5073885;28;20047;-63
2023/01/26 06:00:04;;;;;;;22.58;8.48;;;0.90;99.90;;;;;;5053395;28;20040;-64
2023/01/26 06:02:30;;;;;;;22.65;7.85;;;1.00;99.90;;;;;;5064172;28;20375;-64
2023/01/26 06:04:55;;;;;;;20.70;7.80;;;1.00;99.90;;;;;;5074388;28;20536;-63
2023/01/26 06:07:21;;;;;;;23.55;8.65;;;1.00;99.90;;;;;;5060825;28;20041;-64
2023/01/26 06:09:47;;;;;;;20.48;8.07;;;1.00;99.90;;;;;;5059738;28;20613;-63
2023/01/26 06:12:18;;;;;;;23.67;8.30;;;1.00;99.90;;;;;;5062295;28;20079;-66
2023/01/26 06:14:43;;;;;;;20.42;7.55;;;1.00;99.90;;;;;;5051844;28;20052;-66
2023/01/26 06:17:10;;;;;;;22.63;7.85;;;1.00;99.90;;;;;;5059234;28;20060;-63
2023/01/26 06:19:36;;;;;;;22.45;8.52;;;1.00;99.90;;;;;;5044954;28;20044;-66
2023/01/26 06:22:02;;;;;;;24.10;8.40;;;1.00;99.90;;;;;;5043783;28;20094;-64
2023/01/26 06:24:28;;;;;;;24.92;8.07;;;1.00;99.90;;;;;;5036368;28;20309;-64
2023/01/26 06:26:54;;;;;;;25.02;7.90;;;1.10;99.90;;;;;;5026172;28;20044;-64
2023/01/26 06:29:20;;;;;;;27.27;8.90;;;1.00;99.90;;;;;;5057566;28;20044;-64
2023/01/26 06:31:46;;;;;;;25.20;8.43;;;1.00;99.90;;;;;;5051971;28;20147;-66
2023/01/26 06:34:11;;;;;;;24.83;8.63;;;1.10;99.90;;;;;;5060053;28;20040;-66
2023/01/26 06:36:37;;;;;;;23.63;8.63;;;1.10;99.90;;;;;;5064197;28;20032;-65
2023/01/26 06:39:02;;;;;;;23.63;7.90;;;1.10;99.90;;;;;;5071738;28;20052;-65
2023/01/26 06:41:28;;;;;;;24.33;8.18;;;1.10;99.90;;;;;;5060126;28;20202;-65
2023/01/26 06:43:54;;;;;;;30.27;8.18;;;1.10;99.90;;;;;;5056999;28;20131;-64
2023/01/26 06:46:19;;;;;;;26.90;9.25;;;1.10;99.90;;;;;;5064545;28;20048;-64
2023/01/26 06:48:45;;;;;;;31.67;9.35;;;1.10;99.90;;;;;;5066452;28;20044;-64
2023/01/26 06:51:16;;;;;;;30.00;8.85;;;1.10;99.90;;;;;;5063621;28;20032;-64
2023/01/26 06:53:47;;;;;;;34.35;10.35;;;1.10;99.90;;;;;;5055421;28;20495;-65
2023/01/26 06:56:13;;;;;;;28.07;9.43;;;1.10;99.90;;;;;;5061108;28;20124;-68
2023/01/26 06:58:39;;;;;;;42.42;10.68;;;1.10;99.90;;;;;;5053436;28;20059;-65
2023/01/26 07:01:04;;;;;;;32.70;10.57;;;1.10;99.90;;;;;;5057254;28;20037;-65
2023/01/26 07:03:30;;;;;;;31.65;10.05;;;1.20;99.90;;;;;;5061257;28;20824;-65
2023/01/26 07:05:56;;;;;;;39.75;10.57;;;1.10;99.90;;;;;;5054880;28;20041;-65
2023/01/26 07:08:22;;;;;;;42.38;10.45;;;1.20;99.90;;;;;;5061383;28;20037;-65
2023/01/26 07:10:51;;;;;;;42.90;11.48;;;1.20;99.90;;;;;;5063641;28;20037;-65
2023/01/26 07:13:16;;;;;;;39.38;10.60;;;1.20;99.90;;;;;;5067002;28;20123;-66
2023/01/26 07:15:42;;;;;;;38.65;10.95;;;1.20;99.90;;;;;;5060267;28;20170;-65
2023/01/26 07:18:07;;;;;;;42.08;10.65;;;1.20;99.90;;;;;;5066824;28;20125;-65
2023/01/26 07:20:33;;;;;;;44.17;11.43;;;1.20;99.90;;;;;;5061628;28;20499;-66
2023/01/26 07:22:59;;;;;;;42.28;11.80;;;1.20;99.90;;;;;;5056042;28;20036;-66
2023/01/26 07:25:25;;;;;;;42.45;11.85;;;1.20;99.90;;;;;;5060573;28;20044;-66
2023/01/26 07:27:57;;;;;;;47.88;14.13;;;1.20;99.90;;;;;;5066459;28;20036;-66
2023/01/26 07:30:23;;;;;;;50.20;12.90;;;1.30;99.90;;;;;;5059944;28;20047;-66
2023/01/26 07:32:49;;;;;;;50.10;12.95;;;1.30;99.90;;;;;;5070722;28;20043;-66
2023/01/26 07:35:15;;;;;;;52.50;13.40;;;1.30;99.90;;;;;;5071214;28;20040;-66
2023/01/26 07:37:40;;;;;;;52.10;13.15;;;1.40;99.90;;;;;;5068913;28;20052;-66
2023/01/26 07:40:07;;;;;;;74.95;14.88;;;1.40;99.90;;;;;;5065975;28;20051;-66
2023/01/26 07:42:32;;;;;;;62.03;14.50;;;1.40;99.90;;;;;;5066000;28;20043;-66
2023/01/26 07:44:58;;;;;;;55.95;13.75;;;1.40;99.90;;;;;;5062670;28;20041;-66
2023/01/26 07:47:24;;;;;;;64.47;13.25;;;1.40;99.90;;;;;;5059020;28;20139;-66
2023/01/26 07:49:50;;;;;;;74.28;14.32;;;1.40;99.90;;;;;;5058808;28;20619;-66
2023/01/26 07:52:16;;;;;;;82.53;15.25;;;1.40;99.90;;;;;;5061099;28;20120;-66
2023/01/26 07:54:41;;;;;;;100.82;15.45;;;1.50;99.90;;;;;;5063419;28;20145;-66
2023/01/26 07:57:07;;;;;;;102.25;14.65;;;1.50;99.90;;;;;;5066043;28;20123;-66
2023/01/26 07:59:33;;;;;;;89.53;17.35;;;1.50;99.90;;;;;;5060068;28;20036;-66
2023/01/26 08:01:58;;;;;;;57.53;14.55;;;1.50;99.90;;;;;;5082769;22;20068;-64
2023/01/26 08:04:24;;;;;;;107.45;17.13;;;1.50;99.90;;;;;;5083589;28;20036;-65
2023/01/26 08:06:50;;;;;;;87.10;14.48;;;1.60;99.90;;;;;;5071065;28;20029;-66
2023/01/26 08:09:16;;;;;;;78.28;15.77;;;1.60;99.90;;;;;;5070401;28;20047;-66
2023/01/26 08:11:42;;;;;;;96.68;16.05;;;1.60;99.90;;;;;;5059813;28;20033;-63
2023/01/26 08:14:07;;;;;;;100.68;14.88;;;1.60;99.90;;;;;;5053043;28;20116;-65
2023/01/26 08:16:33;;;;;;;103.13;15.27;;;1.60;99.90;;;;;;5056901;28;20032;-64
2023/01/26 08:18:58;;;;;;;141.30;18.48;;;1.60;99.90;;;;;;5070713;28;20038;-65
2023/01/26 08:21:24;;;;;;;146.38;15.95;;;1.60;99.90;;;;;;5062766;28;20068;-65
2023/01/26 08:23:50;;;;;;;120.85;15.98;;;1.70;99.90;;;;;;5057363;28;20052;-65
2023/01/26 08:26:18;;;;;;;116.07;18.17;;;1.70;99.90;;;;;;5054049;28;20099;-65
2023/01/26 08:28:44;;;;;;;106.93;15.23;;;1.70;99.90;;;;;;5067437;28;20128;-65
2023/01/26 08:31:12;;;;;;;95.78;15.23;;;1.80;99.90;;;;;;5068827;28;20075;-65
2023/01/26 08:33:40;;;;;;;79.70;14.02;;;1.80;99.90;;;;;;5051026;28;20045;-66
2023/01/26 08:36:09;;;;;;;94.40;15.43;;;1.80;99.90;;;;;;5067742;28;20044;-65
2023/01/26 08:38:34;;;;;;;109.60;15.95;;;1.90;99.90;;;;;;5059363;28;20485;-65
2023/01/26 08:41:01;;;;;;;130.95;15.32;;;1.90;99.90;;;;;;5050881;28;20136;-65
2023/01/26 08:43:27;;;;;;;150.95;14.48;;;1.80;99.90;;;;;;5050676;28;20048;-64
2023/01/26 08:45:52;;;;;;;155.95;13.60;;;1.90;99.90;;;;;;5039900;28;20033;-65
2023/01/26 08:48:18;;;;;;;159.38;17.75;;;1.90;99.90;;;;;;5054819;28;20437;-65
2023/01/26 08:50:44;;;;;;;122.15;13.00;;;1.90;99.90;;;;;;5058988;28;20508;-65
2023/01/26 08:53:10;;;;;;;153.85;14.02;;;1.90;99.90;;;;;;5067823;28;20040;-64
2023/01/26 08:55:36;;;;;;;119.60;12.73;;;1.90;99.90;;;;;;5061164;28;20033;-65
2023/01/26 08:58:02;;;;;;;151.63;12.18;;;1.90;99.90;;;;;;5053663;28;20556;-65
2023/01/26 09:00:28;;;;;;;151.60;11.48;;;1.90;99.90;;;;;;5060632;28;20140;-64
2023/01/26 09:03:02;;;;;;;130.32;12.57;;;1.90;99.90;;;;;;5039457;28;20076;-64
2023/01/26 09:05:33;;;;;;;143.80;13.00;;;1.90;99.90;;;;;;5049754;28;20041;-65
2023/01/26 09:07:58;;;;;;;178.85;13.77;;;2.00;99.90;;;;;;5056821;28;20032;-65
2023/01/26 09:10:25;;;;;;;133.75;10.77;;;2.00;99.90;;;;;;5061376;28;20062;-64
2023/01/26 09:12:50;;;;;;;128.20;11.77;;;2.00;99.90;;;;;;5042359;28;20495;-64
2023/01/26 09:15:16;;;;;;;106.15;10.13;;;2.00;99.90;;;;;;5059333;28;20041;-65
2023/01/26 09:17:42;;;;;;;126.03;10.45;;;1.90;99.90;;;;;;5068652;28;20040;-65
2023/01/26 09:20:09;;;;;;;116.72;10.55;;;2.00;99.90;;;;;;5057047;28;20064;-65
2023/01/26 09:22:35;;;;;;;86.40;10.40;;;2.00;99.90;;;;;;5061596;28;20036;-65
2023/01/26 09:25:01;;;;;;;134.98;13.27;;;2.00;99.90;;;;;;5071177;28;20043;-65
2023/01/26 09:27:26;;;;;;;132.38;12.00;;;2.10;99.90;;;;;;5064408;28;20090;-66
2023/01/26 09:29:52;;;;;;;53.53;8.40;;;2.10;99.90;;;;;;5060059;28;20025;-65
2023/01/26 09:32:18;;;;;;;53.38;7.65;;;2.20;99.90;;;;;;5064667;28;20479;-65
2023/01/26 09:34:44;;;;;;;49.85;8.95;;;2.20;99.90;;;;;;5058351;28;20386;-65
2023/01/26 09:37:10;;;;;;;41.85;8.25;;;2.30;99.90;;;;;;5059547;28;20050;-65
2023/01/26 09:39:35;;;;;;;52.75;9.60;;;2.30;99.90;;;;;;5066523;28;20115;-65
2023/01/26 09:42:17;;;;;;;51.75;8.73;;;2.30;99.90;;;;;;5066001;28;20064;-65
2023/01/26 09:45:06;;;;;;;40.92;9.23;;;2.40;99.90;;;;;;5053075;28;20464;-64
2023/01/26 09:47:58;;;;;;;40.90;8.88;;;2.40;99.90;;;;;;5060939;28;20033;-63
2023/01/26 09:50:35;;;;;;;40.65;8.63;;;2.50;99.90;;;;;;5061898;28;20107;-63
2023/01/26 09:53:19;;;;;;;32.55;9.52;;;2.50;99.90;;;;;;5063260;28;20515;-64
2023/01/26 09:55:47;;;;;;;35.40;8.27;;;2.60;99.90;;;;;;5058654;28;20033;-63
2023/01/26 09:58:36;;;;;;;27.42;9.52;;;2.60;99.90;;;;;;5069642;28;20040;-63
2023/01/26 10:01:03;;;;;;;35.75;9.73;;;2.70;99.90;;;;;;5063798;28;20093;-64
2023/01/26 10:03:31;;;;;;;30.27;8.35;;;2.80;99.90;;;;;;5063905;28;21907;-63
2023/01/26 10:06:12;;;;;;;33.15;8.15;;;2.90;99.90;;;;;;5064214;28;20044;-64
2023/01/26 10:08:38;;;;;;;25.20;7.33;;;3.10;99.90;;;;;;5053075;28;20052;-63
2023/01/26 10:11:16;;;;;;;14.05;3.90;;;3.30;99.90;;;;;;5055578;28;20086;-64
2023/01/26 10:13:50;;;;;;;23.35;5.88;;;3.60;99.90;;;;;;5053623;28;20060;-63
2023/01/26 10:16:16;;;;;;;19.90;5.30;;;3.80;99.90;;;;;;5057148;28;20047;-63
2023/01/26 10:19:09;;;;;;;23.60;6.40;;;4.00;99.90;;;;;;5053518;28;20041;-63
2023/01/26 10:21:41;;;;;;;18.40;4.57;;;4.10;99.90;;;;;;5044931;28;20048;-63
2023/01/26 10:24:10;;;;;;;20.75;5.70;;;4.20;99.90;;;;;;5064123;28;20044;-63
2023/01/26 10:26:36;;;;;;;19.98;5.45;;;4.30;99.90;;;;;;5059903;28;20039;-63
2023/01/26 10:29:03;;;;;;;14.55;3.47;;;4.40;99.90;;;;;;5059365;28;20025;-63
2023/01/26 10:31:32;;;;;;;17.85;5.40;;;4.40;99.90;;;;;;5071512;28;20078;-63
2023/01/26 10:33:58;;;;;;;32.20;6.63;;;4.40;99.90;;;;;;5067084;28;20068;-64
2023/01/26 10:36:27;;;;;;;14.63;5.10;;;4.50;99.90;;;;;;5049085;28;20099;-63
2023/01/26 10:38:53;;;;;;;17.02;3.67;;;4.50;99.90;;;;;;5061154;28;20042;-64
2023/01/26 10:41:19;;;;;;;28.45;6.07;;;4.50;99.90;;;;;;5064334;28;20116;-64
2023/01/26 10:44:01;;;;;;;20.50;5.47;;;4.60;99.90;;;;;;5058183;28;20040;-64
2023/01/26 10:46:31;;;;;;;11.90;4.57;;;4.70;99.90;;;;;;5042776;28;20040;-64
2023/01/26 10:49:13;;;;;;;19.45;6.18;;;4.70;99.90;;;;;;5065298;28;20035;-64
2023/01/26 10:51:43;;;;;;;14.23;4.13;;;4.80;99.90;;;;;;5065542;28;20089;-64
2023/01/26 10:54:18;;;;;;;18.70;4.55;;;4.80;99.90;;;;;;5066973;28;20099;-64
2023/01/26 10:56:50;;;;;;;12.27;4.07;;;4.90;99.90;;;;;;5062662;28;20123;-64
2023/01/26 10:59:27;;;;;;;18.42;4.88;;;4.90;99.90;;;;;;5060327;28;20048;-64
2023/01/26 11:02:01;;;;;;;12.65;3.75;;;5.00;99.90;;;;;;5065144;28;20047;-64
2023/01/26 11:04:28;;;;;;;15.90;3.72;;;5.10;99.90;;;;;;5072032;28;20047;-64
2023/01/26 11:06:54;;;;;;;16.23;4.45;;;5.10;99.90;;;;;;5073133;28;20124;-64
2023/01/26 11:09:30;;;;;;;22.10;5.97;;;5.20;99.90;;;;;;5052006;28;20056;-64
2023/01/26 11:12:01;;;;;;;14.65;4.10;;;5.30;99.90;;;;;;5056662;28;20079;-64
2023/01/26 11:14:28;;;;;;;26.65;5.88;;;5.40;99.90;;;;;;5064330;28;20059;-63
2023/01/26 11:17:06;;;;;;;17.20;4.80;;;5.50;99.90;;;;;;5072963;28;20040;-63
2023/01/26 11:19:57;;;;;;;13.40;4.65;;;5.60;99.90;;;;;;5066877;28;20471;-63
2023/01/26 11:23:10;;;;;;;22.83;4.75;;;5.70;99.90;;;;;;5033447;28;20079;-64
2023/01/26 11:26:08;;;;;;;20.77;5.07;;;5.80;99.90;;;;;;4972047;28;20060;-64
2023/01/26 11:28:54;;;;;;;21.33;4.93;;;5.90;99.90;;;;;;4944591;28;20042;-64
2023/01/26 11:31:38;;;;;;;25.25;5.32;;;6.00;99.90;;;;;;5029972;28;20128;-64
2023/01/26 11:34:31;;;;;;;20.70;3.55;;;6.10;99.90;;;;;;5032165;28;20029;-65
2023/01/26 11:37:35;;;;;;;19.30;4.55;;;6.20;99.90;;;;;;5045001;28;20094;-64
2023/01/26 11:40:33;;;;;;;9.27;3.00;;;6.30;99.90;;;;;;5060067;28;20037;-64
2023/01/26 11:43:14;;;;;;;20.67;3.80;;;6.40;99.90;;;;;;5052189;28;20045;-64
2023/01/26 11:46:10;;;;;;;18.73;3.70;;;6.50;99.90;;;;;;5059803;28;20398;-64
2023/01/26 11:48:36;;;;;;;9.20;2.63;;;6.60;99.90;;;;;;5017497;28;20032;-65
2023/01/26 11:51:26;;;;;;;24.08;4.20;;;6.60;99.90;;;;;;5032735;28;20045;-64
2023/01/26 11:54:43;;;;;;;26.40;3.88;;;6.80;99.90;;;;;;5026520;28;20402;-64
2023/01/26 11:57:39;;;;;;;13.25;2.92;;;6.80;99.90;;;;;;5018156;28;20048;-65
2023/01/26 12:00:22;;;;;;;12.00;2.03;;;6.90;99.90;;;;;;5043220;28;20175;-65
2023/01/26 12:02:59;;;;;;;11.18;2.10;;;7.00;99.90;;;;;;5034582;28;20028;-65
2023/01/26 12:05:30;;;;;;;17.02;3.05;;;7.10;99.90;;;;;;5030515;28;20045;-64
2023/01/26 12:08:05;;;;;;;10.35;2.20;;;7.10;99.90;;;;;;5017670;28;20037;-65
2023/01/26 12:10:40;;;;;;;5.20;1.45;;;7.20;99.90;;;;;;5034954;28;20040;-65
2023/01/26 12:13:36;;;;;;;12.65;1.98;;;7.20;99.90;;;;;;5024691;28;20029;-64
2023/01/26 12:16:15;;;;;;;13.32;2.25;;;7.20;99.90;;;;;;5014510;28;20037;-64
2023/01/26 12:18:53;;;;;;;18.17;2.63;;;7.20;99.90;;;;;;5019320;28;20737;-64
2023/01/26 12:21:19;;;;;;;7.50;1.73;;;7.30;99.90;;;;;;5009383;28;20135;-65
2023/01/26 12:23:52;;;;;;;10.25;2.38;;;7.40;99.90;;;;;;5034439;28;20032;-65
2023/01/26 12:26:21;;;;;;;17.40;2.22;;;7.40;99.90;;;;;;5070538;28;20540;-65
2023/01/26 12:29:08;;;;;;;14.43;2.53;;;7.50;99.90;;;;;;5058210;28;20037;-65
2023/01/26 12:31:57;;;;;;;13.95;2.60;;;7.40;99.90;;;;;;5049808;28;20040;-65
2023/01/26 12:34:29;;;;;;;18.17;3.08;;;7.50;99.90;;;;;;5053041;28;20094;-65
2023/01/26 12:37:03;;;;;;;;;;;7.70;99.90;;;;;;5071292;28;20029;-65
2023/01/26 12:39:43;;;;;;;12.57;2.22;;;7.80;99.90;;;;;;5062470;28;20395;-65
2023/01/26 12:42:17;;;;;;;12.93;2.83;;;7.90;99.90;;;;;;5063460;28;20029;-64
2023/01/26 12:44:52;;;;;;;10.40;2.08;;;7.90;99.90;;;;;;5049242;28;20422;-64
2023/01/26 12:47:26;;;;;;;12.15;1.85;;;7.80;99.90;;;;;;5057587;28;20033;-64
2023/01/26 12:50:17;;;;;;;12.82;1.98;;;7.70;99.90;;;;;;5060265;28;20032;-65
2023/01/26 12:53:06;;;;;;;6.35;2.00;;;7.80;99.90;;;;;;5043861;28;20037;-65
2023/01/26 12:55:39;;;;;;;18.88;2.10;;;7.90;99.90;;;;;;5063063;28;20044;-65
2023/01/26 12:58:30;;;;;;;16.67;2.20;;;8.10;99.90;;;;;;5060081;28;20036;-65
2023/01/26 13:01:01;;;;;;;11.63;2.40;;;8.30;99.90;;;;;;5050532;28;20462;-65
2023/01/26 13:03:40;;;;;;;10.55;2.00;;;8.40;99.90;;;;;;5057755;28;20049;-65
2023/01/26 13:06:09;;;;;;;8.60;1.88;;;8.60;99.90;;;;;;5059215;28;20037;-65
2023/01/26 13:08:34;;;;;;;4.55;1.55;;;8.30;99.90;;;;;;5046402;28;20040;-65
2023/01/26 13:11:09;;;;;;;8.15;1.48;;;8.00;99.90;;;;;;5063106;28;20033;-65
2023/01/26 13:13:55;;;;;;;11.88;1.63;;;7.90;99.90;;;;;;5038094;28;20058;-65
2023/01/26 13:16:32;;;;;;;8.65;1.42;;;7.70;99.90;;;;;;5046689;28;20099;-65
2023/01/26 13:19:00;;;;;;;5.00;1.75;;;7.70;99.90;;;;;;5046414;28;20074;-65
2023/01/26 13:21:37;;;;;;;4.85;1.25;;;7.70;99.90;;;;;;5033485;28;20127;-65
2023/01/26 13:24:15;;;;;;;4.60;1.40;;;7.70;99.90;;;;;;5032068;28;20084;-65
2023/01/26 13:26:42;;;;;;;7.80;1.83;;;7.60;99.90;;;;;;5038752;28;20076;-65
2023/01/26 13:29:35;;;;;;;6.40;0.88;;;7.60;99.90;;;;;;5072656;28;20119;-65
2023/01/26 13:32:12;;;;;;;4.85;1.00;;;7.70;99.90;;;;;;5041619;28;20587;-65
2023/01/26 13:34:46;;;;;;;10.52;1.40;;;7.70;99.90;;;;;;5061620;28;20033;-64
2023/01/26 13:37:47;;;;;;;15.10;1.85;;;7.70;99.90;;;;;;5037060;28;20036;-65
2023/01/26 13:40:33;;;;;;;5.63;1.17;;;7.80;99.90;;;;;;5041703;28;20033;-64
2023/01/26 13:43:12;;;;;;;6.20;1.40;;;7.80;99.90;;;;;;5051405;28;20111;-64